CAF7630 VMMC-ZSQD
Flight info
| Callsign | CAF7630 |
|---|---|
| Flight time | N/A |
| Altitude | 35000 |
| Route | MAGOG A470 DOTMI/K0869S1190 A470 LJG B221 DST W117 BEGMO W13 PINOT B221 IDVEL |
| Aircraft | B738/M-SDE2E3FGHIRWXY/LB1 |
Departure
| Time | 2026-05-08 11:19 |
|---|---|
| Airport | Macau International Airport (VMMC) |
Arrival
| Time | N/A |
|---|---|
| Airport | Qingdao Jiaodong International Airport (ZSQD) |
| Time | Latitude | Longitude | Altitude | Speed | Heading |
|---|---|---|---|---|---|
| 2026-05-08 11:05 | 22.16069 | 113.57657 | 28 ft | 0 kts | 284° |
| 2026-05-08 11:10 | 22.16069 | 113.57658 | 28 ft | 0 kts | 284° |
| 2026-05-08 11:10 | 22.16063 | 113.57681 | 28 ft | 4 kts | 285° |
| 2026-05-08 11:10 | 22.16055 | 113.57708 | 28 ft | 4 kts | 286° |
| 2026-05-08 11:10 | 22.16049 | 113.57732 | 28 ft | 4 kts | 302° |
| 2026-05-08 11:11 | 22.16031 | 113.57746 | 28 ft | 4 kts | 4° |
| 2026-05-08 11:11 | 22.16012 | 113.57743 | 28 ft | 1 kts | 15° |
| 2026-05-08 11:11 | 22.16009 | 113.57742 | 28 ft | 0 kts | 15° |
| 2026-05-08 11:15 | 22.16013 | 113.57743 | 28 ft | 2 kts | 15° |
| 2026-05-08 11:15 | 22.16048 | 113.57753 | 28 ft | 9 kts | 15° |
| 2026-05-08 11:15 | 22.16108 | 113.57812 | 28 ft | 15 kts | 72° |
| 2026-05-08 11:15 | 22.16144 | 113.57943 | 28 ft | 21 kts | 71° |
| 2026-05-08 11:16 | 22.16196 | 113.58104 | 28 ft | 22 kts | 71° |
| 2026-05-08 11:16 | 22.16251 | 113.58277 | 28 ft | 24 kts | 71° |
| 2026-05-08 11:16 | 22.16279 | 113.58366 | 28 ft | 11 kts | 71° |
| 2026-05-08 11:16 | 22.16310 | 113.58465 | 28 ft | 17 kts | 71° |
| 2026-05-08 11:17 | 22.16351 | 113.58595 | 28 ft | 16 kts | 71° |
| 2026-05-08 11:17 | 22.16318 | 113.58641 | 28 ft | 1 kts | 165° |
| 2026-05-08 11:18 | 22.16303 | 113.58645 | 28 ft | 9 kts | 165° |
| 2026-05-08 11:18 | 22.16045 | 113.58740 | 29 ft | 87 kts | 161° |
| 2026-05-08 11:18 | 22.15165 | 113.59061 | 193 ft | 165 kts | 160° |
| 2026-05-08 11:19 | 22.14041 | 113.59496 | 1275 ft | 172 kts | 154° |
| 2026-05-08 11:19 | 22.13013 | 113.60105 | 2568 ft | 177 kts | 131° |
| 2026-05-08 11:19 | 22.12544 | 113.61373 | 3119 ft | 198 kts | 89° |
| 2026-05-08 11:19 | 22.12765 | 113.62929 | 3597 ft | 217 kts | 80° |
| 2026-05-08 11:20 | 22.13041 | 113.64584 | 4187 ft | 235 kts | 81° |
| 2026-05-08 11:20 | 22.13310 | 113.66358 | 5105 ft | 242 kts | 82° |
| 2026-05-08 11:20 | 22.13555 | 113.68148 | 6215 ft | 241 kts | 82° |
| 2026-05-08 11:20 | 22.13778 | 113.69948 | 7286 ft | 243 kts | 83° |
| 2026-05-08 11:21 | 22.13983 | 113.71762 | 8303 ft | 245 kts | 83° |
| 2026-05-08 11:21 | 22.14174 | 113.73592 | 9309 ft | 247 kts | 84° |
| 2026-05-08 11:21 | 22.14357 | 113.75439 | 10279 ft | 250 kts | 84° |
| 2026-05-08 11:21 | 22.14539 | 113.77384 | 10712 ft | 275 kts | 84° |
| 2026-05-08 11:22 | 22.14733 | 113.79540 | 10938 ft | 303 kts | 84° |
| 2026-05-08 11:22 | 22.14938 | 113.81902 | 11145 ft | 328 kts | 84° |
| 2026-05-08 11:22 | 22.15151 | 113.84429 | 11495 ft | 346 kts | 84° |
| 2026-05-08 11:22 | 22.15366 | 113.87039 | 12201 ft | 351 kts | 84° |
| 2026-05-08 11:23 | 22.15578 | 113.89669 | 13019 ft | 352 kts | 84° |
| 2026-05-08 11:23 | 22.15789 | 113.92308 | 13829 ft | 354 kts | 84° |
| 2026-05-08 11:23 | 22.15998 | 113.94954 | 14641 ft | 355 kts | 84° |
| 2026-05-08 11:23 | 22.16207 | 113.97610 | 15422 ft | 355 kts | 83° |
| 2026-05-08 11:24 | 22.16416 | 114.00275 | 16138 ft | 357 kts | 82° |
| 2026-05-08 11:24 | 22.16626 | 114.02957 | 16808 ft | 360 kts | 82° |
| 2026-05-08 11:24 | 22.16837 | 114.05658 | 17445 ft | 363 kts | 81° |
| 2026-05-08 11:24 | 22.17048 | 114.08374 | 17204 ft | 370 kts | 85° |
| 2026-05-08 11:25 | 22.17266 | 114.11227 | 17257 ft | 393 kts | 85° |
| 2026-05-08 11:25 | 22.17498 | 114.14234 | 17412 ft | 411 kts | 85° |
| 2026-05-08 11:25 | 22.17738 | 114.17366 | 17537 ft | 427 kts | 85° |
| 2026-05-08 11:25 | 22.17987 | 114.20613 | 17642 ft | 441 kts | 85° |
| 2026-05-08 11:26 | 22.18243 | 114.23946 | 17732 ft | 453 kts | 85° |
| 2026-05-08 11:26 | 22.18504 | 114.27362 | 17916 ft | 461 kts | 85° |
| 2026-05-08 11:26 | 22.18767 | 114.30820 | 18249 ft | 464 kts | 85° |
| 2026-05-08 11:26 | 22.19032 | 114.34292 | 18596 ft | 465 kts | 85° |
| 2026-05-08 11:27 | 22.19296 | 114.37775 | 18930 ft | 466 kts | 85° |
| 2026-05-08 11:27 | 22.19561 | 114.41272 | 19222 ft | 469 kts | 85° |
| 2026-05-08 11:27 | 22.19826 | 114.44788 | 19497 ft | 472 kts | 85° |
| 2026-05-08 11:27 | 22.20092 | 114.48323 | 19796 ft | 474 kts | 85° |
| 2026-05-08 11:28 | 22.20358 | 114.51870 | 20104 ft | 475 kts | 85° |
| 2026-05-08 11:28 | 22.20624 | 114.55429 | 20392 ft | 477 kts | 85° |
| 2026-05-08 11:28 | 22.20890 | 114.59004 | 20667 ft | 479 kts | 85° |
| 2026-05-08 11:28 | 22.21156 | 114.62594 | 20935 ft | 481 kts | 85° |
| 2026-05-08 11:29 | 22.21423 | 114.66197 | 21201 ft | 483 kts | 85° |
| 2026-05-08 11:29 | 22.21690 | 114.69815 | 21459 ft | 484 kts | 85° |
| 2026-05-08 11:29 | 22.21957 | 114.73444 | 21715 ft | 486 kts | 84° |
| 2026-05-08 11:29 | 22.22225 | 114.77088 | 21955 ft | 488 kts | 84° |
| 2026-05-08 11:30 | 22.22492 | 114.80739 | 22184 ft | 489 kts | 84° |
| 2026-05-08 11:30 | 22.22759 | 114.84410 | 22412 ft | 491 kts | 84° |
| 2026-05-08 11:30 | 22.23027 | 114.88087 | 22635 ft | 493 kts | 84° |
| 2026-05-08 11:30 | 22.23294 | 114.91783 | 22846 ft | 494 kts | 84° |
| 2026-05-08 11:31 | 22.23561 | 114.95481 | 23059 ft | 496 kts | 84° |
| 2026-05-08 11:31 | 22.23829 | 114.99196 | 23270 ft | 497 kts | 84° |
| 2026-05-08 11:31 | 22.24096 | 115.02920 | 23459 ft | 499 kts | 84° |
| 2026-05-08 11:31 | 22.24361 | 115.06627 | 23597 ft | 501 kts | 84° |
| 2026-05-08 11:32 | 22.24625 | 115.10335 | 23753 ft | 502 kts | 84° |
| 2026-05-08 11:32 | 22.24891 | 115.14082 | 23927 ft | 502 kts | 84° |
| 2026-05-08 11:32 | 22.25157 | 115.17835 | 24098 ft | 503 kts | 84° |
| 2026-05-08 11:32 | 22.25426 | 115.21652 | 24243 ft | 505 kts | 84° |
| 2026-05-08 11:33 | 22.25695 | 115.25471 | 24386 ft | 506 kts | 84° |
| 2026-05-08 11:33 | 22.25962 | 115.29275 | 24530 ft | 507 kts | 84° |
| 2026-05-08 11:33 | 22.26227 | 115.33071 | 24670 ft | 508 kts | 85° |
| 2026-05-08 11:33 | 22.26492 | 115.36878 | 24833 ft | 508 kts | 85° |
| 2026-05-08 11:34 | 22.26756 | 115.40681 | 24982 ft | 509 kts | 85° |
| 2026-05-08 11:34 | 22.27017 | 115.44449 | 25046 ft | 512 kts | 85° |
| 2026-05-08 11:34 | 22.27282 | 115.48294 | 25086 ft | 515 kts | 85° |
| 2026-05-08 11:34 | 22.27548 | 115.52161 | 25207 ft | 516 kts | 85° |
| 2026-05-08 11:35 | 22.27812 | 115.56021 | 25355 ft | 516 kts | 85° |
| 2026-05-08 11:35 | 22.28076 | 115.59892 | 25482 ft | 517 kts | 85° |
| 2026-05-08 11:35 | 22.28339 | 115.63760 | 25592 ft | 518 kts | 85° |
| 2026-05-08 11:35 | 22.28602 | 115.67636 | 25730 ft | 517 kts | 85° |
| 2026-05-08 11:36 | 22.28863 | 115.71509 | 25834 ft | 517 kts | 85° |
| 2026-05-08 11:36 | 22.29125 | 115.75386 | 25897 ft | 518 kts | 85° |
| 2026-05-08 11:36 | 22.29695 | 115.79223 | 25909 ft | 518 kts | 71° |
| 2026-05-08 11:36 | 22.31201 | 115.82735 | 25975 ft | 515 kts | 56° |
| 2026-05-08 11:37 | 22.33426 | 115.85735 | 26076 ft | 511 kts | 42° |
| 2026-05-08 11:37 | 22.36184 | 115.88122 | 26167 ft | 508 kts | 34° |
| 2026-05-08 11:37 | 22.39050 | 115.90353 | 26238 ft | 508 kts | 33° |
| 2026-05-08 11:37 | 22.41923 | 115.92586 | 26288 ft | 509 kts | 34° |
| 2026-05-08 11:38 | 22.44786 | 115.94841 | 26369 ft | 509 kts | 34° |
| 2026-05-08 11:38 | 22.47631 | 115.97116 | 26450 ft | 509 kts | 34° |
| 2026-05-08 11:38 | 22.50471 | 115.99412 | 26500 ft | 510 kts | 34° |
| 2026-05-08 11:38 | 22.53307 | 116.01720 | 26584 ft | 510 kts | 34° |
| 2026-05-08 11:39 | 22.56139 | 116.04030 | 26696 ft | 510 kts | 34° |
| 2026-05-08 11:39 | 22.58971 | 116.06340 | 26856 ft | 508 kts | 34° |
| 2026-05-08 11:39 | 22.61776 | 116.08627 | 27260 ft | 503 kts | 34° |
| 2026-05-08 11:39 | 22.64555 | 116.10893 | 27744 ft | 497 kts | 34° |
| 2026-05-08 11:40 | 22.67302 | 116.13132 | 28225 ft | 492 kts | 34° |
| 2026-05-08 11:40 | 22.70027 | 116.15353 | 28681 ft | 489 kts | 34° |
| 2026-05-08 11:40 | 22.72742 | 116.17570 | 29059 ft | 489 kts | 34° |
| 2026-05-08 11:40 | 22.75449 | 116.19805 | 29361 ft | 490 kts | 34° |
| 2026-05-08 11:41 | 22.78150 | 116.22052 | 29686 ft | 490 kts | 34° |
| 2026-05-08 11:41 | 22.80852 | 116.24306 | 30056 ft | 490 kts | 34° |
| 2026-05-08 11:41 | 22.83551 | 116.26558 | 30399 ft | 488 kts | 34° |
| 2026-05-08 11:41 | 22.86239 | 116.28798 | 30770 ft | 487 kts | 34° |
| 2026-05-08 11:42 | 22.88919 | 116.31031 | 31130 ft | 486 kts | 34° |
| 2026-05-08 11:42 | 22.91598 | 116.33263 | 31482 ft | 485 kts | 34° |
| 2026-05-08 11:42 | 22.94094 | 116.35343 | 31827 ft | 484 kts | 34° |
| 2026-05-08 11:42 | 22.96764 | 116.37563 | 32201 ft | 483 kts | 33° |
| 2026-05-08 11:43 | 22.99433 | 116.39770 | 32595 ft | 481 kts | 33° |
| 2026-05-08 11:43 | 23.02094 | 116.41962 | 32988 ft | 480 kts | 33° |
| 2026-05-08 11:43 | 23.04751 | 116.44152 | 33373 ft | 479 kts | 33° |
| 2026-05-08 11:43 | 23.07404 | 116.46340 | 33764 ft | 478 kts | 33° |
| 2026-05-08 11:44 | 23.10048 | 116.48523 | 34137 ft | 477 kts | 33° |
| 2026-05-08 11:44 | 23.12686 | 116.50705 | 34463 ft | 476 kts | 33° |
| 2026-05-08 11:44 | 23.15322 | 116.52887 | 34796 ft | 475 kts | 33° |
| 2026-05-08 11:44 | 23.17950 | 116.55063 | 35088 ft | 476 kts | 33° |
| 2026-05-08 11:45 | 23.20597 | 116.57255 | 35086 ft | 480 kts | 33° |
| 2026-05-08 11:45 | 23.25892 | 116.61646 | 35092 ft | 477 kts | 32° |
| 2026-05-08 11:46 | 23.31151 | 116.66014 | 35097 ft | 474 kts | 32° |
| 2026-05-08 11:46 | 23.35503 | 116.69628 | 35103 ft | 474 kts | 32° |
| 2026-05-08 11:47 | 23.41718 | 116.74795 | 35110 ft | 487 kts | 32° |
| 2026-05-08 11:47 | 23.46075 | 116.78788 | 35099 ft | 499 kts | 40° |
| 2026-05-08 11:48 | 23.50904 | 116.84309 | 35105 ft | 506 kts | 43° |
| 2026-05-08 11:48 | 23.55715 | 116.89931 | 35110 ft | 508 kts | 42° |
| 2026-05-08 11:49 | 23.60589 | 116.95510 | 35099 ft | 508 kts | 41° |
| 2026-05-08 11:49 | 23.65484 | 117.01063 | 35110 ft | 507 kts | 41° |
| 2026-05-08 11:50 | 23.70367 | 117.06611 | 35111 ft | 506 kts | 41° |
| 2026-05-08 11:50 | 23.75244 | 117.12165 | 35118 ft | 507 kts | 41° |
| 2026-05-08 11:51 | 23.80300 | 117.17481 | 35126 ft | 503 kts | 37° |
| 2026-05-08 11:51 | 23.85552 | 117.22517 | 35122 ft | 502 kts | 36° |
| 2026-05-08 11:52 | 23.90797 | 117.27556 | 35137 ft | 502 kts | 37° |
| 2026-05-08 11:52 | 23.95963 | 117.32607 | 35142 ft | 502 kts | 37° |
| 2026-05-08 11:53 | 24.01172 | 117.37707 | 35151 ft | 503 kts | 37° |
| 2026-05-08 11:53 | 24.06387 | 117.42817 | 35137 ft | 503 kts | 37° |
| 2026-05-08 11:54 | 24.11592 | 117.47935 | 35143 ft | 503 kts | 37° |
| 2026-05-08 11:54 | 24.16625 | 117.53216 | 35155 ft | 507 kts | 42° |
| 2026-05-08 11:55 | 24.21359 | 117.58970 | 35158 ft | 508 kts | 43° |
| 2026-05-08 11:55 | 24.26074 | 117.64780 | 35150 ft | 509 kts | 43° |
| 2026-05-08 11:56 | 24.30825 | 117.70536 | 35157 ft | 508 kts | 43° |
| 2026-05-08 11:56 | 24.35593 | 117.76266 | 35163 ft | 508 kts | 43° |
| 2026-05-08 11:57 | 24.40354 | 117.81993 | 35154 ft | 508 kts | 43° |
| 2026-05-08 11:57 | 24.45115 | 117.87734 | 35162 ft | 509 kts | 42° |
| 2026-05-08 11:58 | 24.49872 | 117.93481 | 35161 ft | 509 kts | 42° |
| 2026-05-08 11:58 | 24.54629 | 117.99231 | 35165 ft | 508 kts | 43° |
| 2026-05-08 11:59 | 24.61884 | 118.07709 | 35164 ft | 507 kts | 40° |
| 2026-05-08 11:59 | 24.66808 | 118.13247 | 35186 ft | 506 kts | 40° |
| 2026-05-08 12:00 | 24.71694 | 118.18825 | 35179 ft | 507 kts | 40° |
| 2026-05-08 12:00 | 24.76559 | 118.24366 | 35191 ft | 507 kts | 40° |
| 2026-05-08 12:01 | 24.81455 | 118.29937 | 35193 ft | 506 kts | 40° |
| 2026-05-08 12:01 | 24.86351 | 118.35520 | 35191 ft | 507 kts | 40° |
| 2026-05-08 12:02 | 24.91241 | 118.41106 | 35201 ft | 507 kts | 40° |
| 2026-05-08 12:02 | 24.96127 | 118.46695 | 35208 ft | 506 kts | 40° |
| 2026-05-08 12:03 | 25.01014 | 118.52292 | 35213 ft | 506 kts | 40° |
| 2026-05-08 12:03 | 25.05896 | 118.57890 | 35207 ft | 506 kts | 40° |
| 2026-05-08 12:04 | 25.10768 | 118.63505 | 35224 ft | 508 kts | 41° |
| 2026-05-08 12:04 | 25.15556 | 118.69254 | 35216 ft | 509 kts | 42° |
| 2026-05-08 12:05 | 25.20323 | 118.75042 | 35217 ft | 509 kts | 41° |
| 2026-05-08 12:05 | 25.25102 | 118.80814 | 35219 ft | 509 kts | 41° |
| 2026-05-08 12:06 | 25.29885 | 118.86584 | 35233 ft | 509 kts | 41° |
| 2026-05-08 12:06 | 25.34668 | 118.92360 | 35234 ft | 509 kts | 41° |
| 2026-05-08 12:07 | 25.39517 | 118.98065 | 35236 ft | 508 kts | 40° |
| 2026-05-08 12:07 | 25.44390 | 119.03723 | 35228 ft | 508 kts | 40° |
| 2026-05-08 12:08 | 25.49244 | 119.09387 | 35238 ft | 507 kts | 40° |
| 2026-05-08 12:08 | 25.54083 | 119.15061 | 35252 ft | 507 kts | 40° |
| 2026-05-08 12:09 | 25.58930 | 119.20754 | 35251 ft | 508 kts | 40° |
| 2026-05-08 12:09 | 25.63784 | 119.26462 | 35242 ft | 509 kts | 40° |
| 2026-05-08 12:10 | 25.68630 | 119.32168 | 35251 ft | 508 kts | 40° |
| 2026-05-08 12:10 | 25.73832 | 119.37331 | 35255 ft | 494 kts | 26° |
| 2026-05-08 12:11 | 25.79882 | 119.40639 | 35259 ft | 477 kts | 9° |
| 2026-05-08 12:11 | 25.86236 | 119.42727 | 35264 ft | 476 kts | 8° |
| 2026-05-08 12:12 | 25.92601 | 119.44810 | 35253 ft | 477 kts | 9° |
| 2026-05-08 12:12 | 25.98956 | 119.46952 | 35261 ft | 477 kts | 9° |
| 2026-05-08 12:13 | 26.05310 | 119.49114 | 35260 ft | 478 kts | 9° |
| 2026-05-08 12:13 | 26.11669 | 119.51279 | 35264 ft | 478 kts | 9° |
| 2026-05-08 12:14 | 26.18029 | 119.53447 | 35272 ft | 478 kts | 9° |
| 2026-05-08 12:14 | 26.24267 | 119.56191 | 35279 ft | 493 kts | 22° |
| 2026-05-08 12:15 | 26.30089 | 119.60332 | 35274 ft | 498 kts | 25° |
| 2026-05-08 12:15 | 26.35894 | 119.64544 | 35275 ft | 497 kts | 25° |
| 2026-05-08 12:16 | 26.41736 | 119.68670 | 35275 ft | 497 kts | 24° |
| 2026-05-08 12:16 | 26.47586 | 119.72779 | 35303 ft | 497 kts | 24° |
| 2026-05-08 12:17 | 26.53454 | 119.76893 | 35279 ft | 498 kts | 24° |
| 2026-05-08 12:17 | 26.59282 | 119.80977 | 35285 ft | 498 kts | 24° |
| 2026-05-08 12:18 | 26.65148 | 119.85096 | 35274 ft | 498 kts | 24° |
| 2026-05-08 12:18 | 26.71013 | 119.89222 | 35302 ft | 498 kts | 24° |
| 2026-05-08 12:19 | 26.76880 | 119.93354 | 35282 ft | 498 kts | 24° |
| 2026-05-08 12:19 | 26.82746 | 119.97489 | 35280 ft | 499 kts | 24° |
| 2026-05-08 12:20 | 26.88615 | 120.01635 | 35285 ft | 499 kts | 24° |
| 2026-05-08 12:20 | 26.94478 | 120.05805 | 35297 ft | 500 kts | 24° |
| 2026-05-08 12:21 | 27.00345 | 120.09983 | 35283 ft | 500 kts | 24° |
| 2026-05-08 12:21 | 27.06220 | 120.14173 | 35298 ft | 500 kts | 24° |
| 2026-05-08 12:22 | 27.12099 | 120.18368 | 35301 ft | 501 kts | 24° |
| 2026-05-08 12:22 | 27.17989 | 120.22528 | 35304 ft | 501 kts | 22° |
| 2026-05-08 12:23 | 27.23908 | 120.26664 | 35308 ft | 501 kts | 23° |
| 2026-05-08 12:23 | 27.29821 | 120.30814 | 35306 ft | 501 kts | 23° |
| 2026-05-08 12:24 | 27.35733 | 120.34976 | 35297 ft | 501 kts | 23° |
| 2026-05-08 12:24 | 27.41638 | 120.39124 | 35318 ft | 499 kts | 22° |
| 2026-05-08 12:25 | 27.47510 | 120.43323 | 35308 ft | 500 kts | 23° |
| 2026-05-08 12:25 | 27.53382 | 120.47534 | 35302 ft | 500 kts | 23° |
| 2026-05-08 12:26 | 27.59213 | 120.51701 | 35302 ft | 499 kts | 23° |
| 2026-05-08 12:26 | 27.65068 | 120.55904 | 35304 ft | 498 kts | 23° |
| 2026-05-08 12:27 | 27.70917 | 120.60112 | 35295 ft | 503 kts | 26° |
| 2026-05-08 12:27 | 27.73549 | 120.62809 | 35296 ft | 522 kts | 42° |
| 2026-05-08 12:27 | 27.75580 | 120.66272 | 35306 ft | 538 kts | 58° |
| 2026-05-08 12:28 | 27.76836 | 120.70297 | 35313 ft | 549 kts | 72° |
| 2026-05-08 12:28 | 27.77688 | 120.74506 | 35309 ft | 551 kts | 73° |
| 2026-05-08 12:28 | 27.79293 | 120.82981 | 35310 ft | 552 kts | 73° |
| 2026-05-08 12:29 | 27.80989 | 120.91415 | 35294 ft | 550 kts | 72° |
| 2026-05-08 12:29 | 27.82757 | 120.99804 | 35284 ft | 549 kts | 72° |
| 2026-05-08 12:30 | 27.84527 | 121.08193 | 35292 ft | 549 kts | 72° |
| 2026-05-08 12:30 | 27.86282 | 121.16597 | 35296 ft | 549 kts | 72° |
| 2026-05-08 12:31 | 27.88030 | 121.25002 | 35285 ft | 550 kts | 72° |
| 2026-05-08 12:31 | 27.89774 | 121.33414 | 35291 ft | 550 kts | 72° |
| 2026-05-08 12:32 | 27.91514 | 121.41832 | 35298 ft | 550 kts | 72° |
| 2026-05-08 12:32 | 27.93248 | 121.50247 | 35292 ft | 549 kts | 72° |
| 2026-05-08 12:33 | 27.94975 | 121.58662 | 35286 ft | 549 kts | 72° |
| 2026-05-08 12:33 | 27.96697 | 121.67078 | 35292 ft | 549 kts | 72° |
| 2026-05-08 12:34 | 27.98417 | 121.75500 | 35287 ft | 549 kts | 72° |
| 2026-05-08 12:34 | 27.99690 | 121.79514 | 35268 ft | 536 kts | 54° |
| 2026-05-08 12:34 | 28.01009 | 121.81831 | 35306 ft | 525 kts | 45° |
| 2026-05-08 12:35 | 28.04351 | 121.85702 | 35305 ft | 505 kts | 27° |
| 2026-05-08 12:35 | 28.06268 | 121.87135 | 35288 ft | 493 kts | 19° |
| 2026-05-08 12:35 | 28.13343 | 121.91160 | 35289 ft | 489 kts | 16° |
| 2026-05-08 12:36 | 28.19455 | 121.94567 | 35289 ft | 490 kts | 17° |
| 2026-05-08 12:36 | 28.25548 | 121.98046 | 35323 ft | 491 kts | 17° |
| 2026-05-08 12:37 | 28.30650 | 122.00999 | 35301 ft | 492 kts | 17° |
| 2026-05-08 12:37 | 28.36739 | 122.04537 | 35293 ft | 492 kts | 18° |
| 2026-05-08 12:38 | 28.42830 | 122.08078 | 35284 ft | 492 kts | 18° |
| 2026-05-08 12:38 | 28.48873 | 122.11593 | 35312 ft | 491 kts | 17° |
| 2026-05-08 12:39 | 28.54959 | 122.15135 | 35304 ft | 491 kts | 17° |
| 2026-05-08 12:39 | 28.61042 | 122.18682 | 35299 ft | 491 kts | 17° |
| 2026-05-08 12:40 | 28.67118 | 122.22228 | 35306 ft | 491 kts | 17° |
| 2026-05-08 12:40 | 28.73198 | 122.25782 | 35310 ft | 491 kts | 17° |
| 2026-05-08 12:41 | 28.79274 | 122.29338 | 35306 ft | 491 kts | 17° |
| 2026-05-08 12:41 | 28.85343 | 122.32895 | 35306 ft | 490 kts | 17° |
| 2026-05-08 12:42 | 28.91408 | 122.36454 | 35321 ft | 491 kts | 17° |
| 2026-05-08 12:42 | 28.97485 | 122.40024 | 35312 ft | 492 kts | 17° |
| 2026-05-08 12:43 | 29.03532 | 122.43582 | 35306 ft | 492 kts | 17° |
| 2026-05-08 12:43 | 29.09618 | 122.47169 | 35311 ft | 492 kts | 17° |
| 2026-05-08 12:44 | 29.15726 | 122.50743 | 35324 ft | 490 kts | 14° |
| 2026-05-08 12:44 | 29.18888 | 122.51960 | 35315 ft | 471 kts | 1° |
| 2026-05-08 12:44 | 29.22080 | 122.52404 | 35322 ft | 456 kts | 351° |
| 2026-05-08 12:45 | 29.25197 | 122.52232 | 35310 ft | 441 kts | 340° |
| 2026-05-08 12:45 | 29.28172 | 122.51534 | 35329 ft | 436 kts | 338° |
| 2026-05-08 12:45 | 29.34118 | 122.50079 | 35311 ft | 437 kts | 338° |
| 2026-05-08 12:46 | 29.40093 | 122.48661 | 35327 ft | 440 kts | 338° |
| 2026-05-08 12:46 | 29.46104 | 122.47264 | 35321 ft | 441 kts | 339° |
| 2026-05-08 12:47 | 29.52085 | 122.45880 | 35316 ft | 442 kts | 339° |
| 2026-05-08 12:47 | 29.58102 | 122.44485 | 35316 ft | 442 kts | 339° |
| 2026-05-08 12:48 | 29.64174 | 122.43074 | 35318 ft | 442 kts | 339° |
| 2026-05-08 12:48 | 29.70190 | 122.41673 | 35318 ft | 442 kts | 339° |
| 2026-05-08 12:49 | 29.76232 | 122.40265 | 35319 ft | 442 kts | 339° |
| 2026-05-08 12:49 | 29.82243 | 122.38862 | 35314 ft | 442 kts | 339° |
| 2026-05-08 12:50 | 29.88254 | 122.37457 | 35336 ft | 443 kts | 338° |
| 2026-05-08 12:50 | 29.94432 | 122.36336 | 35310 ft | 457 kts | 348° |
| 2026-05-08 12:51 | 30.04076 | 122.36925 | 35317 ft | 467 kts | 353° |
| 2026-05-08 12:52 | 30.10572 | 122.37390 | 35320 ft | 467 kts | 353° |
| 2026-05-08 12:52 | 30.20305 | 122.38004 | 35325 ft | 467 kts | 353° |
| 2026-05-08 12:53 | 30.26775 | 122.38406 | 35321 ft | 466 kts | 353° |
| 2026-05-08 12:53 | 30.33266 | 122.38752 | 35317 ft | 466 kts | 352° |
| 2026-05-08 12:54 | 30.39724 | 122.39085 | 35327 ft | 466 kts | 352° |
| 2026-05-08 12:54 | 30.46217 | 122.39427 | 35322 ft | 466 kts | 352° |
| 2026-05-08 12:55 | 30.52717 | 122.39775 | 35320 ft | 466 kts | 352° |
| 2026-05-08 12:55 | 30.59212 | 122.40122 | 35362 ft | 466 kts | 352° |